sensor_id;sensor_type;location;lat;lon;timestamp;pressure;altitude;pressure_sealevel;temperature;humidity
75759;BME280;64371;47.566;19.086;2023-11-19T00:02:06;101019.38;;;0.79;100.00
75759;BME280;64371;47.566;19.086;2023-11-19T00:05:10;101027.16;;;0.79;100.00
75759;BME280;64371;47.566;19.086;2023-11-19T00:08:19;101024.34;;;0.74;100.00
75759;BME280;64371;47.566;19.086;2023-11-19T00:11:21;101025.34;;;0.73;100.00
75759;BME280;64371;47.566;19.086;2023-11-19T00:14:24;101016.00;;;0.85;100.00
75759;BME280;64371;47.566;19.086;2023-11-19T00:17:27;101031.75;;;0.83;100.00
75759;BME280;64371;47.566;19.086;2023-11-19T00:20:30;101023.75;;;0.78;100.00
75759;BME280;64371;47.566;19.086;2023-11-19T00:23:32;101011.38;;;0.93;100.00
75759;BME280;64371;47.566;19.086;2023-11-19T00:26:35;101019.56;;;1.10;100.00
75759;BME280;64371;47.566;19.086;2023-11-19T00:29:37;101019.19;;;1.13;100.00
75759;BME280;64371;47.566;19.086;2023-11-19T00:32:40;101027.97;;;1.05;100.00
75759;BME280;64371;47.566;19.086;2023-11-19T00:35:43;101042.75;;;0.98;100.00
75759;BME280;64371;47.566;19.086;2023-11-19T00:38:46;101013.19;;;0.93;100.00
75759;BME280;64371;47.566;19.086;2023-11-19T00:41:48;101022.00;;;1.11;100.00
75759;BME280;64371;47.566;19.086;2023-11-19T00:44:51;101025.94;;;1.14;100.00
75759;BME280;64371;47.566;19.086;2023-11-19T00:47:53;101034.97;;;0.98;100.00
75759;BME280;64371;47.566;19.086;2023-11-19T00:50:56;101018.97;;;0.88;100.00
75759;BME280;64371;47.566;19.086;2023-11-19T00:53:58;101019.38;;;0.92;100.00
75759;BME280;64371;47.566;19.086;2023-11-19T00:57:01;101015.19;;;0.91;100.00
75759;BME280;64371;47.566;19.086;2023-11-19T01:00:05;101013.19;;;0.86;100.00
75759;BME280;64371;47.566;19.086;2023-11-19T01:03:22;100999.19;;;0.74;100.00
75759;BME280;64371;47.566;19.086;2023-11-19T01:06:28;100979.22;;;0.68;100.00
75759;BME280;64371;47.566;19.086;2023-11-19T01:09:31;101007.41;;;0.91;100.00
75759;BME280;64371;47.566;19.086;2023-11-19T01:12:37;101019.38;;;0.85;100.00
75759;BME280;64371;47.566;19.086;2023-11-19T01:15:40;101009.19;;;0.77;100.00
75759;BME280;64371;47.566;19.086;2023-11-19T01:18:43;101009.78;;;0.79;100.00
75759;BME280;64371;47.566;19.086;2023-11-19T01:21:46;101016.78;;;0.72;100.00
75759;BME280;64371;47.566;19.086;2023-11-19T01:24:48;101012.78;;;0.76;100.00
75759;BME280;64371;47.566;19.086;2023-11-19T01:27:51;101012.78;;;0.76;100.00
75759;BME280;64371;47.566;19.086;2023-11-19T01:30:53;101011.97;;;0.69;100.00
75759;BME280;64371;47.566;19.086;2023-11-19T01:33:56;101011.38;;;0.74;100.00
75759;BME280;64371;47.566;19.086;2023-11-19T01:37:01;101005.59;;;0.65;100.00
75759;BME280;64371;47.566;19.086;2023-11-19T01:40:04;101011.97;;;0.62;100.00
75759;BME280;64371;47.566;19.086;2023-11-19T01:43:08;101006.78;;;0.76;100.00
75759;BME280;64371;47.566;19.086;2023-11-19T01:46:13;101004.97;;;0.83;100.00
75759;BME280;64371;47.566;19.086;2023-11-19T01:49:18;100997.22;;;0.70;100.00
75759;BME280;64371;47.566;19.086;2023-11-19T01:52:21;100992.63;;;0.65;100.00
75759;BME280;64371;47.566;19.086;2023-11-19T01:55:27;100973.84;;;0.56;100.00
75759;BME280;64371;47.566;19.086;2023-11-19T01:58:31;100977.44;;;0.62;100.00
75759;BME280;64371;47.566;19.086;2023-11-19T02:01:34;100959.69;;;0.46;100.00
75759;BME280;64371;47.566;19.086;2023-11-19T02:04:41;100961.25;;;0.47;100.00
75759;BME280;64371;47.566;19.086;2023-11-19T02:07:44;100966.22;;;0.42;100.00
75759;BME280;64371;47.566;19.086;2023-11-19T02:10:48;100964.44;;;0.42;100.00
75759;BME280;64371;47.566;19.086;2023-11-19T02:13:50;100970.22;;;0.44;100.00
75759;BME280;64371;47.566;19.086;2023-11-19T02:16:53;100954.47;;;0.46;100.00
75759;BME280;64371;47.566;19.086;2023-11-19T02:19:56;100971.03;;;0.51;100.00
75759;BME280;64371;47.566;19.086;2023-11-19T02:22:58;100974.22;;;0.40;100.00
75759;BME280;64371;47.566;19.086;2023-11-19T02:29:21;100950.88;;;0.47;100.00
75759;BME280;64371;47.566;19.086;2023-11-19T02:32:27;100946.50;;;0.41;100.00
75759;BME280;64371;47.566;19.086;2023-11-19T02:35:30;100961.06;;;0.55;100.00
75759;BME280;64371;47.566;19.086;2023-11-19T02:38:34;100941.50;;;0.39;100.00
75759;BME280;64371;47.566;19.086;2023-11-19T02:41:38;100955.09;;;0.48;100.00
75759;BME280;64371;47.566;19.086;2023-11-19T02:44:45;100935.91;;;0.42;100.00
75759;BME280;64371;47.566;19.086;2023-11-19T02:47:48;100938.94;;;0.46;100.00
75759;BME280;64371;47.566;19.086;2023-11-19T02:50:51;100938.31;;;0.50;100.00
75759;BME280;64371;47.566;19.086;2023-11-19T02:53:54;100933.53;;;0.41;100.00
75759;BME280;64371;47.566;19.086;2023-11-19T02:56:57;100927.31;;;0.42;100.00
75759;BME280;64371;47.566;19.086;2023-11-19T03:00:02;100929.91;;;0.42;100.00
75759;BME280;64371;47.566;19.086;2023-11-19T03:03:14;100917.97;;;0.47;100.00
75759;BME280;64371;47.566;19.086;2023-11-19T03:06:21;100914.56;;;0.47;100.00
75759;BME280;64371;47.566;19.086;2023-11-19T03:09:26;100918.94;;;0.46;100.00
75759;BME280;64371;47.566;19.086;2023-11-19T03:12:28;100915.38;;;0.67;100.00
75759;BME280;64371;47.566;19.086;2023-11-19T03:15:31;100908.97;;;0.83;100.00
75759;BME280;64371;47.566;19.086;2023-11-19T03:18:36;100898.59;;;0.96;100.00
75759;BME280;64371;47.566;19.086;2023-11-19T03:21:38;100904.09;;;1.32;100.00
75759;BME280;64371;47.566;19.086;2023-11-19T03:24:41;100894.88;;;1.36;100.00
75759;BME280;64371;47.566;19.086;2023-11-19T03:27:43;100904.06;;;1.45;100.00
75759;BME280;64371;47.566;19.086;2023-11-19T03:30:46;100902.63;;;1.49;99.63
75759;BME280;64371;47.566;19.086;2023-11-19T03:33:48;100900.13;;;1.23;100.00
75759;BME280;64371;47.566;19.086;2023-11-19T03:36:51;100898.94;;;1.12;100.00
75759;BME280;64371;47.566;19.086;2023-11-19T03:39:54;100877.72;;;1.35;100.00
75759;BME280;64371;47.566;19.086;2023-11-19T03:42:57;100868.28;;;1.41;99.89
75759;BME280;64371;47.566;19.086;2023-11-19T03:46:02;100855.09;;;1.42;99.88
75759;BME280;64371;47.566;19.086;2023-11-19T03:49:05;100863.06;;;1.47;100.00
75759;BME280;64371;47.566;19.086;2023-11-19T03:52:09;100855.97;;;1.67;99.42
75759;BME280;64371;47.566;19.086;2023-11-19T03:55:22;100845.06;;;1.52;99.02
75759;BME280;64371;47.566;19.086;2023-11-19T03:58:24;100837.16;;;1.34;100.00
75759;BME280;64371;47.566;19.086;2023-11-19T04:01:26;100851.25;;;1.51;99.55
75759;BME280;64371;47.566;19.086;2023-11-19T04:04:29;100833.75;;;1.33;99.94
75759;BME280;64371;47.566;19.086;2023-11-19T04:07:32;100840.66;;;1.53;100.00
75759;BME280;64371;47.566;19.086;2023-11-19T04:10:34;100831.94;;;1.34;99.90
75759;BME280;64371;47.566;19.086;2023-11-19T04:13:37;100806.56;;;1.36;99.77
75759;BME280;64371;47.566;19.086;2023-11-19T04:16:40;100820.16;;;1.38;99.40
75759;BME280;64371;47.566;19.086;2023-11-19T04:19:43;100829.34;;;1.34;99.88
75759;BME280;64371;47.566;19.086;2023-11-19T04:22:45;100834.19;;;1.30;100.00
75759;BME280;64371;47.566;19.086;2023-11-19T04:25:49;100810.09;;;1.10;100.00
75759;BME280;64371;47.566;19.086;2023-11-19T04:28:51;100807.09;;;1.13;100.00
75759;BME280;64371;47.566;19.086;2023-11-19T04:31:54;100819.28;;;1.06;100.00
75759;BME280;64371;47.566;19.086;2023-11-19T04:34:57;100814.28;;;1.05;100.00
75759;BME280;64371;47.566;19.086;2023-11-19T04:37:59;100814.44;;;1.16;100.00
75759;BME280;64371;47.566;19.086;2023-11-19T04:41:02;100815.28;;;1.10;100.00
75759;BME280;64371;47.566;19.086;2023-11-19T04:44:05;100831.44;;;1.12;100.00
75759;BME280;64371;47.566;19.086;2023-11-19T04:47:07;100846.22;;;1.12;100.00
75759;BME280;64371;47.566;19.086;2023-11-19T04:50:10;100844.03;;;1.09;100.00
75759;BME280;64371;47.566;19.086;2023-11-19T04:53:13;100861.41;;;1.08;100.00
75759;BME280;64371;47.566;19.086;2023-11-19T04:56:17;100854.84;;;1.06;100.00
75759;BME280;64371;47.566;19.086;2023-11-19T04:59:21;100839.91;;;0.82;100.00
75759;BME280;64371;47.566;19.086;2023-11-19T05:02:24;100845.31;;;0.74;100.00
75759;BME280;64371;47.566;19.086;2023-11-19T05:05:26;100836.53;;;0.68;100.00
75759;BME280;64371;47.566;19.086;2023-11-19T05:08:29;100842.28;;;0.83;100.00
75759;BME280;64371;47.566;19.086;2023-11-19T05:11:31;100845.13;;;0.75;100.00
75759;BME280;64371;47.566;19.086;2023-11-19T05:14:34;100846.72;;;0.63;100.00
75759;BME280;64371;47.566;19.086;2023-11-19T05:17:36;100863.09;;;0.70;100.00
75759;BME280;64371;47.566;19.086;2023-11-19T05:20:39;100858.47;;;0.92;100.00
75759;BME280;64371;47.566;19.086;2023-11-19T05:23:42;100835.31;;;0.84;100.00
75759;BME280;64371;47.566;19.086;2023-11-19T05:26:44;100833.13;;;0.81;100.00
75759;BME280;64371;47.566;19.086;2023-11-19T05:29:46;100841.31;;;0.78;100.00
75759;BME280;64371;47.566;19.086;2023-11-19T05:32:49;100851.47;;;0.86;100.00
75759;BME280;64371;47.566;19.086;2023-11-19T05:35:51;100837.88;;;0.90;100.00
75759;BME280;64371;47.566;19.086;2023-11-19T05:38:53;100836.06;;;1.04;100.00
75759;BME280;64371;47.566;19.086;2023-11-19T05:41:56;100837.88;;;1.03;100.00
75759;BME280;64371;47.566;19.086;2023-11-19T05:44:58;100841.09;;;0.86;100.00
75759;BME280;64371;47.566;19.086;2023-11-19T05:48:01;100845.31;;;0.74;100.00
75759;BME280;64371;47.566;19.086;2023-11-19T05:51:06;100836.13;;;0.78;100.00
75759;BME280;64371;47.566;19.086;2023-11-19T05:54:09;100842.13;;;0.72;100.00
75759;BME280;64371;47.566;19.086;2023-11-19T05:57:12;100825.59;;;0.59;100.00
75759;BME280;64371;47.566;19.086;2023-11-19T06:00:16;100837.13;;;0.63;100.00
75759;BME280;64371;47.566;19.086;2023-11-19T06:03:19;100834.75;;;0.62;100.00
75759;BME280;64371;47.566;19.086;2023-11-19T06:06:23;100861.09;;;0.72;100.00
75759;BME280;64371;47.566;19.086;2023-11-19T06:09:26;100840.94;;;0.74;100.00
75759;BME280;64371;47.566;19.086;2023-11-19T06:12:28;100822.00;;;0.60;100.00
75759;BME280;64371;47.566;19.086;2023-11-19T06:15:30;100821.78;;;0.68;100.00
75759;BME280;64371;47.566;19.086;2023-11-19T06:18:36;100822.38;;;0.64;100.00
75759;BME280;64371;47.566;19.086;2023-11-19T06:21:39;100820.38;;;0.79;100.00
75759;BME280;64371;47.566;19.086;2023-11-19T06:24:41;100808.31;;;0.98;100.00
75759;BME280;64371;47.566;19.086;2023-11-19T06:27:44;100808.72;;;1.46;100.00
75759;BME280;64371;47.566;19.086;2023-11-19T06:30:47;100798.25;;;1.21;100.00
75759;BME280;64371;47.566;19.086;2023-11-19T06:33:51;100813.72;;;1.41;100.00
75759;BME280;64371;47.566;19.086;2023-11-19T06:36:54;100817.53;;;1.45;100.00
75759;BME280;64371;47.566;19.086;2023-11-19T06:39:57;100804.13;;;1.48;100.00
75759;BME280;64371;47.566;19.086;2023-11-19T06:43:03;100801.91;;;1.51;100.00
75759;BME280;64371;47.566;19.086;2023-11-19T06:46:14;100794.44;;;1.61;100.00
75759;BME280;64371;47.566;19.086;2023-11-19T06:49:17;100798.25;;;1.59;99.41
75759;BME280;64371;47.566;19.086;2023-11-19T06:52:19;100793.13;;;1.52;100.00
75759;BME280;64371;47.566;19.086;2023-11-19T06:55:22;100772.03;;;1.36;100.00
75759;BME280;64371;47.566;19.086;2023-11-19T06:58:24;100797.22;;;1.66;100.00
75759;BME280;64371;47.566;19.086;2023-11-19T07:01:26;100786.25;;;1.64;100.00
75759;BME280;64371;47.566;19.086;2023-11-19T07:04:29;100790.22;;;1.98;98.62
75759;BME280;64371;47.566;19.086;2023-11-19T07:07:32;100781.53;;;2.04;97.03
75759;BME280;64371;47.566;19.086;2023-11-19T07:10:38;100791.28;;;2.15;96.18
75759;BME280;64371;47.566;19.086;2023-11-19T07:13:41;100789.72;;;2.08;97.28
75759;BME280;64371;47.566;19.086;2023-11-19T07:16:44;100798.22;;;2.21;96.60
75759;BME280;64371;47.566;19.086;2023-11-19T07:19:49;100791.06;;;2.17;95.58
75759;BME280;64371;47.566;19.086;2023-11-19T07:22:51;100798.78;;;2.23;95.91
75759;BME280;64371;47.566;19.086;2023-11-19T07:25:57;100793.13;;;2.08;95.95
75759;BME280;64371;47.566;19.086;2023-11-19T07:28:59;100808.13;;;1.81;97.55
75759;BME280;64371;47.566;19.086;2023-11-19T07:32:04;100804.44;;;1.95;97.61
75759;BME280;64371;47.566;19.086;2023-11-19T07:35:07;100798.06;;;2.16;97.11
75759;BME280;64371;47.566;19.086;2023-11-19T07:38:10;100798.94;;;2.28;96.20
75759;BME280;64371;47.566;19.086;2023-11-19T07:41:12;100796.47;;;2.15;95.95
75759;BME280;64371;47.566;19.086;2023-11-19T07:44:15;100810.47;;;2.14;96.78
75759;BME280;64371;47.566;19.086;2023-11-19T07:47:18;100819.03;;;2.21;96.30
75759;BME280;64371;47.566;19.086;2023-11-19T07:50:20;100822.47;;;2.40;95.92
75759;BME280;64371;47.566;19.086;2023-11-19T07:53:27;100804.06;;;2.41;95.22
75759;BME280;64371;47.566;19.086;2023-11-19T07:56:30;100803.06;;;2.60;94.17
75759;BME280;64371;47.566;19.086;2023-11-19T07:59:32;100766.66;;;2.36;95.53
75759;BME280;64371;47.566;19.086;2023-11-19T08:02:35;100775.59;;;2.64;94.67
75759;BME280;64371;47.566;19.086;2023-11-19T08:05:39;100770.56;;;2.45;94.71
75759;BME280;64371;47.566;19.086;2023-11-19T08:08:42;100757.53;;;2.51;94.75
75759;BME280;64371;47.566;19.086;2023-11-19T08:11:53;100740.69;;;2.54;94.51
75759;BME280;64371;47.566;19.086;2023-11-19T08:15:03;100737.72;;;2.50;94.36
75759;BME280;64371;47.566;19.086;2023-11-19T08:18:16;100729.78;;;2.63;94.32
75759;BME280;64371;47.566;19.086;2023-11-19T08:21:20;100720.22;;;2.76;92.89
75759;BME280;64371;47.566;19.086;2023-11-19T08:24:25;100691.88;;;2.67;93.64
75759;BME280;64371;47.566;19.086;2023-11-19T08:27:34;100705.53;;;2.63;93.47
75759;BME280;64371;47.566;19.086;2023-11-19T08:30:36;100728.31;;;2.49;95.21
75759;BME280;64371;47.566;19.086;2023-11-19T08:33:39;100714.59;;;2.60;93.92
75759;BME280;64371;47.566;19.086;2023-11-19T08:36:41;100719.69;;;2.67;93.41
75759;BME280;64371;47.566;19.086;2023-11-19T08:39:44;100719.56;;;2.62;94.22
75759;BME280;64371;47.566;19.086;2023-11-19T08:42:46;100699.06;;;3.02;93.32
75759;BME280;64371;47.566;19.086;2023-11-19T08:45:49;100721.91;;;3.00;92.13
75759;BME280;64371;47.566;19.086;2023-11-19T08:48:51;100704.03;;;3.03;91.53
75759;BME280;64371;47.566;19.086;2023-11-19T08:51:53;100733.75;;;3.14;90.46
75759;BME280;64371;47.566;19.086;2023-11-19T08:54:56;100715.16;;;3.10;90.07
75759;BME280;64371;47.566;19.086;2023-11-19T08:57:59;100708.25;;;3.04;90.15
75759;BME280;64371;47.566;19.086;2023-11-19T09:01:04;100726.47;;;3.04;90.32
75759;BME280;64371;47.566;19.086;2023-11-19T09:04:07;100744.97;;;3.14;90.25
75759;BME280;64371;47.566;19.086;2023-11-19T09:07:10;100734.91;;;3.18;89.67
75759;BME280;64371;47.566;19.086;2023-11-19T09:10:12;100728.53;;;3.14;89.86
75759;BME280;64371;47.566;19.086;2023-11-19T09:13:15;100718.69;;;3.16;90.40
75759;BME280;64371;47.566;19.086;2023-11-19T09:16:17;100739.28;;;3.35;89.16
75759;BME280;64371;47.566;19.086;2023-11-19T09:19:20;100745.28;;;3.36;89.51
75759;BME280;64371;47.566;19.086;2023-11-19T09:22:23;100737.72;;;3.46;88.12
75759;BME280;64371;47.566;19.086;2023-11-19T09:25:28;100728.22;;;3.52;88.50
75759;BME280;64371;47.566;19.086;2023-11-19T09:28:46;100741.72;;;3.49;87.70
75759;BME280;64371;47.566;19.086;2023-11-19T09:31:49;100733.34;;;3.28;88.35
75759;BME280;64371;47.566;19.086;2023-11-19T09:34:51;100728.63;;;3.37;89.21
75759;BME280;64371;47.566;19.086;2023-11-19T09:37:54;100733.09;;;3.60;87.61
75759;BME280;64371;47.566;19.086;2023-11-19T09:40:58;100707.47;;;3.45;88.18
75759;BME280;64371;47.566;19.086;2023-11-19T09:44:02;100709.34;;;3.68;87.62
75759;BME280;64371;47.566;19.086;2023-11-19T09:47:05;100716.13;;;3.69;87.22
75759;BME280;64371;47.566;19.086;2023-11-19T09:50:10;100699.09;;;3.66;86.83
75759;BME280;64371;47.566;19.086;2023-11-19T09:53:16;100695.06;;;3.70;86.72
75759;BME280;64371;47.566;19.086;2023-11-19T09:56:19;100694.31;;;3.52;87.76
75759;BME280;64371;47.566;19.086;2023-11-19T09:59:21;100682.78;;;3.59;87.43
75759;BME280;64371;47.566;19.086;2023-11-19T10:02:24;100666.56;;;3.57;87.96
75759;BME280;64371;47.566;19.086;2023-11-19T10:05:29;100665.91;;;3.62;87.58
75759;BME280;64371;47.566;19.086;2023-11-19T10:08:31;100669.75;;;3.59;87.09
75759;BME280;64371;47.566;19.086;2023-11-19T10:11:34;100651.06;;;3.51;89.05
75759;BME280;64371;47.566;19.086;2023-11-19T10:14:37;100650.50;;;3.60;89.06
75759;BME280;64371;47.566;19.086;2023-11-19T10:17:41;100648.34;;;3.69;88.05
75759;BME280;64371;47.566;19.086;2023-11-19T10:20:45;100643.91;;;3.81;87.32
75759;BME280;64371;47.566;19.086;2023-11-19T10:23:52;100642.00;;;3.76;87.06
75759;BME280;64371;47.566;19.086;2023-11-19T10:26:56;100635.31;;;3.69;87.87
75759;BME280;64371;47.566;19.086;2023-11-19T10:29:59;100643.47;;;3.72;87.46
75759;BME280;64371;47.566;19.086;2023-11-19T10:33:09;100646.88;;;3.73;88.13
75759;BME280;64371;47.566;19.086;2023-11-19T10:36:12;100650.41;;;3.90;87.29
75759;BME280;64371;47.566;19.086;2023-11-19T10:39:15;100660.34;;;3.93;87.02
75759;BME280;64371;47.566;19.086;2023-11-19T10:42:18;100648.44;;;4.09;86.45
75759;BME280;64371;47.566;19.086;2023-11-19T10:45:24;100649.56;;;4.13;86.41
75759;BME280;64371;47.566;19.086;2023-11-19T10:48:26;100641.84;;;4.18;85.15
75759;BME280;64371;47.566;19.086;2023-11-19T10:51:29;100629.63;;;3.95;87.02
75759;BME280;64371;47.566;19.086;2023-11-19T10:54:32;100626.13;;;4.01;86.21
75759;BME280;64371;47.566;19.086;2023-11-19T10:57:36;100618.97;;;4.08;86.75
75759;BME280;64371;47.566;19.086;2023-11-19T11:00:57;100595.63;;;3.78;86.53
75759;BME280;64371;47.566;19.086;2023-11-19T11:04:05;100600.03;;;4.01;86.26
75759;BME280;64371;47.566;19.086;2023-11-19T11:07:14;100577.59;;;3.77;87.33
75759;BME280;64371;47.566;19.086;2023-11-19T11:10:24;100575.13;;;3.70;87.53
75759;BME280;64371;47.566;19.086;2023-11-19T11:13:28;100576.78;;;3.88;86.73
75759;BME280;64371;47.566;19.086;2023-11-19T11:16:31;100571.72;;;3.81;87.28
75759;BME280;64371;47.566;19.086;2023-11-19T11:19:35;100556.69;;;4.00;86.69
75759;BME280;64371;47.566;19.086;2023-11-19T11:23:04;100565.19;;;4.07;86.14
75759;BME280;64371;47.566;19.086;2023-11-19T11:29:58;100576.69;;;3.94;86.51
75759;BME280;64371;47.566;19.086;2023-11-19T11:33:26;100582.22;;;3.98;87.40
75759;BME280;64371;47.566;19.086;2023-11-19T11:36:43;100575.06;;;4.05;86.15
75759;BME280;64371;47.566;19.086;2023-11-19T11:39:51;100568.16;;;3.99;86.71
75759;BME280;64371;47.566;19.086;2023-11-19T11:42:54;100554.03;;;4.23;86.72
75759;BME280;64371;47.566;19.086;2023-11-19T11:45:57;100537.28;;;4.08;87.29
75759;BME280;64371;47.566;19.086;2023-11-19T11:52:04;100534.22;;;4.11;87.11
75759;BME280;64371;47.566;19.086;2023-11-19T11:55:07;100539.03;;;4.30;86.05
75759;BME280;64371;47.566;19.086;2023-11-19T11:58:11;100533.91;;;4.35;87.31
75759;BME280;64371;47.566;19.086;2023-11-19T12:01:15;100524.09;;;4.70;84.65
75759;BME280;64371;47.566;19.086;2023-11-19T12:04:26;100514.81;;;4.63;84.42
75759;BME280;64371;47.566;19.086;2023-11-19T12:07:29;100508.03;;;4.79;84.64
75759;BME280;64371;47.566;19.086;2023-11-19T12:10:36;100504.78;;;4.55;84.58
75759;BME280;64371;47.566;19.086;2023-11-19T12:17:03;100496.16;;;4.54;85.05
75759;BME280;64371;47.566;19.086;2023-11-19T12:20:06;100492.75;;;4.70;83.95
75759;BME280;64371;47.566;19.086;2023-11-19T12:23:11;100488.75;;;4.96;83.72
75759;BME280;64371;47.566;19.086;2023-11-19T12:26:34;100479.88;;;4.81;84.82
75759;BME280;64371;47.566;19.086;2023-11-19T12:29:43;100467.06;;;4.79;84.45
75759;BME280;64371;47.566;19.086;2023-11-19T12:32:46;100463.41;;;4.80;84.28
75759;BME280;64371;47.566;19.086;2023-11-19T12:35:49;100457.16;;;4.81;83.96
75759;BME280;64371;47.566;19.086;2023-11-19T12:38:51;100462.00;;;4.89;84.05
75759;BME280;64371;47.566;19.086;2023-11-19T12:41:54;100455.41;;;4.70;84.95
75759;BME280;64371;47.566;19.086;2023-11-19T12:44:56;100450.50;;;4.74;84.58
75759;BME280;64371;47.566;19.086;2023-11-19T12:48:05;100432.41;;;4.67;84.63
75759;BME280;64371;47.566;19.086;2023-11-19T12:51:08;100438.22;;;4.41;86.35
75759;BME280;64371;47.566;19.086;2023-11-19T12:54:14;100420.81;;;4.46;86.53
75759;BME280;64371;47.566;19.086;2023-11-19T12:57:16;100419.34;;;4.67;85.80
75759;BME280;64371;47.566;19.086;2023-11-19T13:00:23;100411.41;;;4.79;84.17
75759;BME280;64371;47.566;19.086;2023-11-19T13:03:29;100415.28;;;4.93;86.06
75759;BME280;64371;47.566;19.086;2023-11-19T13:06:32;100419.88;;;4.86;85.97
75759;BME280;64371;47.566;19.086;2023-11-19T13:09:35;100434.44;;;4.82;86.40
75759;BME280;64371;47.566;19.086;2023-11-19T13:12:37;100424.06;;;4.70;86.92
75759;BME280;64371;47.566;19.086;2023-11-19T13:15:40;100422.94;;;4.99;86.48
75759;BME280;64371;47.566;19.086;2023-11-19T13:18:42;100421.78;;;4.90;86.40
75759;BME280;64371;47.566;19.086;2023-11-19T13:21:46;100406.41;;;4.94;86.64
75759;BME280;64371;47.566;19.086;2023-11-19T13:24:51;100412.38;;;4.89;87.06
75759;BME280;64371;47.566;19.086;2023-11-19T13:27:54;100410.22;;;4.86;87.89
75759;BME280;64371;47.566;19.086;2023-11-19T13:30:57;100410.78;;;4.72;89.55
75759;BME280;64371;47.566;19.086;2023-11-19T13:34:00;100404.53;;;4.56;88.37
75759;BME280;64371;47.566;19.086;2023-11-19T13:37:03;100408.56;;;4.63;89.31
75759;BME280;64371;47.566;19.086;2023-11-19T13:40:07;100419.88;;;4.86;88.78
75759;BME280;64371;47.566;19.086;2023-11-19T13:43:10;100409.88;;;4.99;87.58
75759;BME280;64371;47.566;19.086;2023-11-19T13:46:12;100414.56;;;4.81;88.08
75759;BME280;64371;47.566;19.086;2023-11-19T13:49:15;100400.34;;;4.72;88.13
75759;BME280;64371;47.566;19.086;2023-11-19T13:52:18;100389.00;;;4.83;87.97
75759;BME280;64371;47.566;19.086;2023-11-19T13:55:20;100398.19;;;4.85;88.14
75759;BME280;64371;47.566;19.086;2023-11-19T13:58:22;100379.69;;;4.53;89.24
75759;BME280;64371;47.566;19.086;2023-11-19T14:01:25;100375.19;;;4.65;89.10
75759;BME280;64371;47.566;19.086;2023-11-19T14:04:28;100390.91;;;4.87;88.53
75759;BME280;64371;47.566;19.086;2023-11-19T14:07:30;100390.25;;;4.97;87.61
75759;BME280;64371;47.566;19.086;2023-11-19T14:10:33;100383.75;;;4.99;87.33
75759;BME280;64371;47.566;19.086;2023-11-19T14:13:35;100395.72;;;4.95;86.69
75759;BME280;64371;47.566;19.086;2023-11-19T14:16:37;100389.81;;;4.83;88.53
75759;BME280;64371;47.566;19.086;2023-11-19T14:19:41;100398.50;;;4.89;87.32
75759;BME280;64371;47.566;19.086;2023-11-19T14:22:49;100398.47;;;4.67;89.20
75759;BME280;64371;47.566;19.086;2023-11-19T14:25:56;100389.16;;;4.93;87.78
75759;BME280;64371;47.566;19.086;2023-11-19T14:29:27;100389.66;;;4.73;88.56
75759;BME280;64371;47.566;19.086;2023-11-19T14:32:38;100375.31;;;4.76;88.53
75759;BME280;64371;47.566;19.086;2023-11-19T14:35:40;100393.06;;;4.74;89.95
75759;BME280;64371;47.566;19.086;2023-11-19T14:38:42;100389.56;;;4.85;90.36
75759;BME280;64371;47.566;19.086;2023-11-19T14:41:45;100374.69;;;4.85;91.36
75759;BME280;64371;47.566;19.086;2023-11-19T14:44:47;100376.63;;;4.95;91.24
75759;BME280;64371;47.566;19.086;2023-11-19T14:47:56;100391.75;;;4.93;91.15
75759;BME280;64371;47.566;19.086;2023-11-19T14:50:59;100405.84;;;4.92;90.72
75759;BME280;64371;47.566;19.086;2023-11-19T14:54:01;100396.69;;;4.89;92.22
75759;BME280;64371;47.566;19.086;2023-11-19T14:57:07;100387.59;;;4.75;92.23
75759;BME280;64371;47.566;19.086;2023-11-19T15:00:12;100410.88;;;4.77;92.42
75759;BME280;64371;47.566;19.086;2023-11-19T15:03:15;100398.09;;;4.80;93.50
75759;BME280;64371;47.566;19.086;2023-11-19T15:06:24;100395.81;;;4.84;94.12
75759;BME280;64371;47.566;19.086;2023-11-19T15:09:29;100399.66;;;4.59;95.31
75759;BME280;64371;47.566;19.086;2023-11-19T15:12:31;100395.31;;;4.65;97.98
75759;BME280;64371;47.566;19.086;2023-11-19T15:15:34;100389.50;;;4.63;97.87
75759;BME280;64371;47.566;19.086;2023-11-19T15:18:38;100383.72;;;4.78;98.74
75759;BME280;64371;47.566;19.086;2023-11-19T15:21:41;100397.59;;;4.61;99.69
75759;BME280;64371;47.566;19.086;2023-11-19T15:24:44;100405.34;;;4.40;100.00
75759;BME280;64371;47.566;19.086;2023-11-19T15:27:48;100397.50;;;4.40;100.00
75759;BME280;64371;47.566;19.086;2023-11-19T15:30:51;100403.69;;;4.50;100.00
75759;BME280;64371;47.566;19.086;2023-11-19T15:33:56;100387.22;;;4.50;100.00
75759;BME280;64371;47.566;19.086;2023-11-19T15:36:58;100391.34;;;4.62;100.00
75759;BME280;64371;47.566;19.086;2023-11-19T15:40:02;100375.81;;;4.39;100.00
75759;BME280;64371;47.566;19.086;2023-11-19T15:43:10;100380.13;;;4.45;100.00
75759;BME280;64371;47.566;19.086;2023-11-19T15:46:12;100379.88;;;4.30;100.00
75759;BME280;64371;47.566;19.086;2023-11-19T15:49:15;100379.63;;;4.32;100.00
75759;BME280;64371;47.566;19.086;2023-11-19T15:52:18;100362.53;;;4.57;100.00
75759;BME280;64371;47.566;19.086;2023-11-19T15:55:20;100371.47;;;4.61;100.00
75759;BME280;64371;47.566;19.086;2023-11-19T15:58:23;100361.75;;;4.57;100.00
75759;BME280;64371;47.566;19.086;2023-11-19T16:01:25;100366.72;;;4.58;100.00
75759;BME280;64371;47.566;19.086;2023-11-19T16:04:30;100370.13;;;4.59;100.00
75759;BME280;64371;47.566;19.086;2023-11-19T16:07:33;100372.81;;;4.64;100.00
75759;BME280;64371;47.566;19.086;2023-11-19T16:10:35;100370.84;;;4.54;100.00